Youngsville, New Mexico
Current Conditions -  °F | °C
As of 7:15 AM on Thursday 27 Nov 2014 (Local Time) from KLAM Reporting Station
Clear Clear  
Wind Chill: 28°   Ceiling: Unl
Heat Index: 36°   Visibility: 10mi
Dew Point: 22°   Wind: 10mph
Humidity: 58%   Direction: 10°N
Pressure: 30.48"   Gusts: NA
Location:  36.19°N, 106.56°W
Report Text: KLAM 271415Z AUTO 01009KT 10SM CLR 02/M05 A3048 RMK AO2 T00211054
Loading
Personal Weather Stations






























Interactive Weather Map New forecast layout! Learn more

10-Day Weather Forecast

Advertisements
Track Severe Weather on mobile